createdAt,value
2022-10-19T00:00:33.220Z,1.58
2022-10-19T00:10:35.251Z,4.45
2022-10-19T00:20:38.582Z,2.45
2022-10-19T00:30:40.537Z,2.95
2022-10-19T00:40:44.560Z,2.97
2022-10-19T00:50:47.964Z,2.58
2022-10-19T01:00:51.315Z,2.70
2022-10-19T01:11:02.138Z,2.88
2022-10-19T01:21:20.824Z,2.92
2022-10-19T01:31:30.228Z,2.40
2022-10-19T01:41:41.090Z,1.83
2022-10-19T01:51:49.450Z,1.90
2022-10-19T02:01:53.662Z,1.98
2022-10-19T02:11:59.698Z,2.50
2022-10-19T02:22:02.319Z,2.10
2022-10-19T02:32:06.182Z,2.45
2022-10-19T02:42:12.093Z,3.28
2022-10-19T02:52:15.447Z,2.40
2022-10-19T03:02:18.208Z,2.28
2022-10-19T03:12:21.491Z,2.97
2022-10-19T03:22:23.417Z,2.60
2022-10-19T03:32:26.763Z,2.70
2022-10-19T03:42:28.702Z,2.72
2022-10-19T03:52:31.998Z,2.70
2022-10-19T04:02:33.909Z,2.42
2022-10-19T04:12:37.350Z,4.65
2022-10-19T04:22:39.286Z,3.78
2022-10-19T04:32:42.599Z,6.10
2022-10-19T04:42:44.526Z,4.32
2022-10-19T04:52:47.796Z,3.65
2022-10-19T05:02:49.682Z,5.93
2022-10-19T05:12:53.154Z,6.82
2022-10-19T05:22:55.066Z,4.53
2022-10-19T05:32:58.362Z,4.18
2022-10-19T05:43:00.310Z,5.35
2022-10-19T05:53:03.584Z,4.93
2022-10-19T06:03:05.567Z,4.72
2022-10-19T06:13:08.939Z,5.28
2022-10-19T06:23:10.869Z,6.03
2022-10-19T06:33:14.136Z,4.80
2022-10-19T06:43:16.138Z,6.78
2022-10-19T06:53:19.408Z,7.32
2022-10-19T07:03:21.365Z,5.72
2022-10-19T07:13:25.259Z,6.88
2022-10-19T07:23:28.783Z,4.70
2022-10-19T07:33:32.284Z,3.85
2022-10-19T07:43:35.382Z,3.95
2022-10-19T07:53:39.931Z,4.25
2022-10-19T08:04:43.263Z,4.20
2022-10-19T08:14:05.639Z,3.70
2022-10-19T08:24:08.271Z,4.68
2022-10-19T08:34:12.623Z,4.97
2022-10-19T09:29:15.804Z,5.65
2022-10-19T09:39:19.496Z,5.78
2022-10-19T09:49:40.703Z,5.35
2022-10-19T09:59:44.038Z,5.53
2022-10-19T10:09:46.442Z,5.75
2022-10-19T10:20:04.695Z,7.18
2022-10-19T10:30:09.417Z,7.17
2022-10-19T10:40:23.682Z,4.88
2022-10-19T10:50:32.165Z,5.57
2022-10-19T11:00:37.095Z,6.72
2022-10-19T11:10:43.889Z,6.55
2022-10-19T11:20:57.911Z,5.32
2022-10-19T11:31:06.895Z,6.22
2022-10-19T11:41:29.377Z,4.77
2022-10-19T11:51:38.877Z,4.95
2022-10-19T12:12:49.809Z,6.25
2022-10-19T12:22:51.848Z,7.78
2022-10-19T12:33:09.438Z,5.80
2022-10-19T12:43:17.160Z,5.78
2022-10-19T13:03:35.290Z,5.80
2022-10-19T13:13:58.117Z,8.02
2022-10-19T13:24:25.704Z,6.32
2022-10-19T13:34:29.198Z,5.82
2022-10-19T13:44:33.940Z,5.22
2022-10-19T13:54:53.040Z,4.63
2022-10-19T14:05:10.406Z,4.80
2022-10-19T14:26:29.702Z,5.47
2022-10-19T14:46:51.607Z,6.63
2022-10-19T14:56:57.162Z,8.23
2022-10-19T15:49:55.310Z,8.38
2022-10-19T16:10:18.703Z,8.85
2022-10-19T16:31:40.110Z,6.97
2022-10-19T16:52:42.893Z,8.27
2022-10-19T17:13:02.660Z,8.25
2022-10-19T17:45:14.458Z,9.80
2022-10-19T18:16:52.640Z,11.10
2022-10-19T18:37:59.406Z,10.45
2022-10-19T18:48:01.408Z,13.10
2022-10-19T18:58:04.696Z,11.07
2022-10-19T19:08:07.298Z,13.88
2022-10-19T19:18:10.712Z,14.95
2022-10-19T19:28:12.705Z,17.48
2022-10-19T19:38:16.309Z,14.43
2022-10-19T19:48:18.227Z,14.65
2022-10-19T19:58:21.587Z,13.35
2022-10-19T20:08:23.583Z,15.15
2022-10-19T20:29:39.683Z,14.50
2022-10-19T20:39:41.634Z,16.98
2022-10-19T20:49:44.961Z,13.80
2022-10-19T20:59:46.938Z,13.68
2022-10-19T21:09:50.285Z,19.70
2022-10-19T21:19:52.225Z,21.98
2022-10-19T21:29:55.528Z,15.82
2022-10-19T21:39:57.445Z,12.38
2022-10-19T21:50:00.698Z,15.35
2022-10-19T22:00:46.493Z,13.27
2022-10-19T22:11:20.619Z,16.27
2022-10-19T22:21:24.740Z,15.93
2022-10-19T22:31:30.127Z,13.45
2022-10-19T22:42:09.351Z,14.93
2022-10-19T22:52:39.535Z,18.83
2022-10-19T23:02:41.456Z,18.88
2022-10-19T23:12:48.273Z,19.30
2022-10-19T23:22:50.474Z,17.55
2022-10-19T23:32:53.806Z,15.23
2022-10-19T23:42:55.706Z,18.30
2022-10-19T23:52:58.953Z,18.83
